Time;durP1;ratioP1;P1;durP2;ratioP2;P2;SDS_P1;SDS_P2;PMS_P1;PMS_P2;Temp;Humidity;BMP_temperature;BMP_pressure;BME280_temperature;BME280_humidity;BME280_pressure;Samples;Min_cycle;Max_cycle;Signal;HPM_P1;HPM_P2
2021/05/02 00:00:25;;;;;;;1.83;0.60;;;21.60;99.90;;;;;;5077829;28;20793;-79
2021/05/02 00:02:53;;;;;;;2.13;0.50;;;21.10;99.90;;;;;;5073216;28;20880;-80
2021/05/02 00:05:22;;;;;;;4.38;0.90;;;20.70;99.90;;;;;;5088162;28;20392;-79
2021/05/02 00:07:49;;;;;;;3.10;0.70;;;20.40;99.90;;;;;;5089958;28;20855;-80
2021/05/02 00:10:18;;;;;;;3.25;0.55;;;20.40;99.90;;;;;;5089969;28;20372;-79
2021/05/02 00:12:46;;;;;;;3.10;0.85;;;20.30;99.90;;;;;;5089685;28;20408;-80
2021/05/02 00:15:17;;;;;;;2.70;0.65;;;20.30;99.90;;;;;;5089369;28;20384;-78
2021/05/02 00:17:46;;;;;;;3.72;0.65;;;20.20;99.90;;;;;;5089966;28;20392;-79
2021/05/02 00:20:15;;;;;;;1.58;0.38;;;20.30;99.90;;;;;;5089837;28;20372;-79
2021/05/02 00:22:47;;;;;;;2.75;0.50;;;20.20;99.90;;;;;;5089973;28;20890;-79
2021/05/02 00:25:18;;;;;;;2.33;0.50;;;20.30;99.90;;;;;;5089140;28;20925;-79
2021/05/02 00:27:46;;;;;;;2.95;0.50;;;20.40;99.90;;;;;;5087895;28;20740;-79
2021/05/02 00:30:16;;;;;;;4.82;0.68;;;20.50;99.90;;;;;;5089052;28;20384;-80
2021/05/02 00:32:47;;;;;;;2.65;0.52;;;20.60;99.90;;;;;;5089513;28;20400;-80
2021/05/02 00:35:16;;;;;;;3.87;0.73;;;20.70;99.90;;;;;;5087930;28;20467;-79
2021/05/02 00:37:44;;;;;;;3.30;0.50;;;20.70;99.90;;;;;;5089467;28;20374;-80
2021/05/02 00:40:17;;;;;;;5.00;0.57;;;20.60;99.90;;;;;;5089395;28;20376;-80
2021/05/02 00:42:50;;;;;;;2.55;0.50;;;20.40;99.90;;;;;;5088632;28;20721;-79
2021/05/02 00:45:35;;;;;;;1.97;0.57;;;20.40;99.90;;;;;;5088858;28;20748;-79
2021/05/02 00:48:10;;;;;;;1.87;0.50;;;20.60;99.90;;;;;;5088564;28;20494;-79
2021/05/02 00:50:51;;;;;;;3.45;0.63;;;20.80;99.90;;;;;;5089231;28;20444;-79
2021/05/02 00:53:46;;;;;;;2.15;0.43;;;20.80;99.90;;;;;;5088389;28;21430;-80
2021/05/02 00:56:26;;;;;;;2.93;0.80;;;20.80;99.90;;;;;;5084653;28;20454;-80
2021/05/02 00:59:02;;;;;;;2.25;0.43;;;20.80;99.90;;;;;;5088915;28;20472;-79
2021/05/02 01:01:42;;;;;;;1.92;0.40;;;20.70;99.90;;;;;;5089239;28;20417;-80
2021/05/02 01:04:12;;;;;;;3.10;0.50;;;20.50;99.90;;;;;;5085466;28;20496;-80
2021/05/02 01:06:42;;;;;;;3.70;0.68;;;20.50;99.90;;;;;;5087428;28;20388;-79
2021/05/02 01:09:10;;;;;;;3.55;0.70;;;20.60;99.90;;;;;;5089210;28;20469;-79
2021/05/02 01:11:41;;;;;;;4.63;0.55;;;20.70;99.90;;;;;;5088086;28;20392;-79
2021/05/02 01:14:13;;;;;;;2.20;0.73;;;20.70;99.90;;;;;;5087836;28;20388;-79
2021/05/02 01:16:41;;;;;;;2.25;0.47;;;20.70;99.90;;;;;;5078428;28;20384;-79
2021/05/02 01:19:12;;;;;;;4.00;0.50;;;20.70;99.90;;;;;;5077415;28;20456;-79
2021/05/02 01:21:52;;;;;;;1.95;0.40;;;20.70;99.90;;;;;;5087227;28;20503;-80
2021/05/02 01:24:19;;;;;;;3.05;1.00;;;20.70;99.90;;;;;;5085863;28;20388;-80
2021/05/02 01:26:47;;;;;;;3.78;0.75;;;20.60;99.90;;;;;;5087860;28;20383;-78
2021/05/02 01:29:15;;;;;;;3.58;0.85;;;20.80;99.90;;;;;;5087059;28;20388;-78
2021/05/02 01:31:43;;;;;;;4.25;0.85;;;20.90;99.90;;;;;;5087718;28;20886;-78
2021/05/02 01:34:11;;;;;;;1.83;0.40;;;20.90;99.90;;;;;;5077610;28;20406;-78
2021/05/02 01:36:39;;;;;;;2.65;0.50;;;21.00;99.90;;;;;;5087796;28;20875;-79
2021/05/02 01:39:08;;;;;;;4.93;0.93;;;21.00;99.90;;;;;;5088656;28;20874;-78
2021/05/02 01:41:35;;;;;;;4.75;0.98;;;21.10;99.90;;;;;;5114206;28;20499;-80
2021/05/02 01:44:03;;;;;;;4.03;0.60;;;21.20;99.90;;;;;;5068448;28;20381;-78
2021/05/02 01:46:42;;;;;;;2.83;0.60;;;21.30;99.90;;;;;;5084736;28;20868;-79
2021/05/02 01:49:14;;;;;;;4.45;0.60;;;21.40;99.90;;;;;;5088313;28;20388;-79
2021/05/02 01:51:41;;;;;;;1.83;0.40;;;21.40;99.90;;;;;;5087634;28;20420;-79
2021/05/02 01:54:09;;;;;;;1.20;0.30;;;21.40;99.90;;;;;;5086460;28;20392;-79
2021/05/02 01:56:36;;;;;;;1.50;0.40;;;21.50;99.90;;;;;;5086387;28;20399;-79
2021/05/02 01:59:05;;;;;;;2.15;0.60;;;21.50;99.90;;;;;;5082667;28;20392;-79
2021/05/02 02:01:32;;;;;;;3.63;0.60;;;21.30;99.90;;;;;;5082980;28;20468;-78
2021/05/02 02:04:03;;;;;;;2.20;0.40;;;21.20;99.90;;;;;;5078179;28;20421;-79
2021/05/02 02:06:30;;;;;;;2.23;0.30;;;21.10;99.90;;;;;;5085240;28;20439;-78
2021/05/02 02:08:59;;;;;;;2.75;0.40;;;21.10;99.90;;;;;;5075880;28;20485;-79
2021/05/02 02:11:30;;;;;;;5.22;0.60;;;21.10;99.90;;;;;;5072193;28;20702;-79
2021/05/02 02:13:58;;;;;;;2.73;0.50;;;21.20;99.90;;;;;;5076246;28;20439;-79
2021/05/02 02:16:26;;;;;;;3.55;0.45;;;21.30;99.90;;;;;;5089196;28;20384;-80
2021/05/02 02:18:53;;;;;;;1.35;0.43;;;21.30;99.90;;;;;;5090462;28;20400;-81
2021/05/02 02:21:24;;;;;;;1.27;0.50;;;21.30;99.90;;;;;;5092678;28;20365;-79
2021/05/02 02:24:02;;;;;;;3.58;0.55;;;21.30;99.90;;;;;;5092863;28;20403;-80
2021/05/02 02:26:36;;;;;;;1.88;0.60;;;21.20;99.90;;;;;;5092097;28;20380;-78
2021/05/02 02:29:07;;;;;;;2.72;0.60;;;21.00;99.90;;;;;;5091835;28;20865;-79
2021/05/02 02:31:35;;;;;;;4.10;0.50;;;20.90;99.90;;;;;;5091823;28;20492;-80
2021/05/02 02:34:06;;;;;;;2.08;0.50;;;21.00;99.90;;;;;;5092213;28;20380;-80
2021/05/02 02:36:34;;;;;;;2.80;0.57;;;20.90;99.90;;;;;;5089363;28;20875;-79
2021/05/02 02:39:01;;;;;;;3.67;0.50;;;21.00;99.90;;;;;;5090522;28;20391;-79
2021/05/02 02:41:31;;;;;;;1.15;0.40;;;21.00;99.90;;;;;;5091199;28;20426;-80
2021/05/02 02:43:59;;;;;;;1.80;0.40;;;21.10;99.90;;;;;;5089802;28;20411;-81
2021/05/02 02:46:27;;;;;;;1.10;0.32;;;21.10;99.90;;;;;;5088231;28;20392;-80
2021/05/02 02:48:59;;;;;;;1.83;0.40;;;21.10;99.90;;;;;;5091219;28;20388;-80
2021/05/02 02:51:28;;;;;;;2.60;0.40;;;21.00;99.90;;;;;;5082005;28;20450;-81
2021/05/02 02:54:01;;;;;;;3.22;0.47;;;21.00;99.90;;;;;;5071305;28;20382;-80
2021/05/02 02:56:30;;;;;;;3.63;0.40;;;20.90;99.90;;;;;;5088788;28;20750;-79
2021/05/02 02:59:09;;;;;;;1.97;0.40;;;20.90;99.90;;;;;;5085284;28;20444;-81
2021/05/02 03:01:40;;;;;;;1.65;0.60;;;21.00;99.90;;;;;;5075578;28;20404;-81
2021/05/02 03:04:09;;;;;;;2.38;0.35;;;21.10;99.90;;;;;;5087430;28;20396;-80
2021/05/02 03:06:37;;;;;;;2.92;0.40;;;21.20;99.90;;;;;;5086177;28;20894;-79
2021/05/02 03:09:05;;;;;;;1.95;0.47;;;21.20;99.90;;;;;;5091214;28;20396;-80
2021/05/02 03:11:32;;;;;;;2.05;0.40;;;21.10;99.90;;;;;;5088007;28;20395;-80
2021/05/02 03:13:59;;;;;;;2.53;0.75;;;21.00;99.90;;;;;;5089978;28;20399;-80
2021/05/02 03:16:30;;;;;;;2.80;0.60;;;20.90;99.90;;;;;;5086197;28;20420;-80
2021/05/02 03:19:09;;;;;;;3.85;1.10;;;20.80;99.90;;;;;;5090520;28;20473;-80
2021/05/02 03:21:45;;;;;;;2.90;0.47;;;20.70;99.90;;;;;;5090831;28;20367;-79
2021/05/02 03:24:14;;;;;;;3.42;0.57;;;20.70;99.90;;;;;;5090254;28;20389;-79
2021/05/02 03:26:43;;;;;;;2.87;0.50;;;20.60;99.90;;;;;;5090241;28;20386;-80
2021/05/02 03:29:12;;;;;;;2.22;0.57;;;20.60;99.90;;;;;;5072596;28;20433;-81
2021/05/02 03:31:43;;;;;;;4.18;0.90;;;20.60;99.90;;;;;;5078219;28;20488;-81
2021/05/02 03:34:11;;;;;;;4.13;0.50;;;20.50;99.90;;;;;;5090521;28;20913;-80
2021/05/02 03:36:51;;;;;;;1.83;0.30;;;20.50;99.90;;;;;;5088382;28;21305;-80
2021/05/02 03:39:19;;;;;;;1.92;0.40;;;20.50;99.90;;;;;;5090075;28;20388;-80
2021/05/02 03:41:46;;;;;;;2.10;0.40;;;20.50;99.90;;;;;;5090063;28;20418;-81
2021/05/02 03:44:13;;;;;;;2.47;0.45;;;20.50;99.90;;;;;;5090106;28;20453;-80
2021/05/02 03:46:40;;;;;;;2.70;0.50;;;20.60;99.90;;;;;;5090026;28;20840;-81
2021/05/02 03:49:08;;;;;;;2.10;0.50;;;20.60;99.90;;;;;;5088945;28;20705;-81
2021/05/02 03:51:38;;;;;;;2.53;0.40;;;20.80;99.90;;;;;;5090082;28;20870;-80
2021/05/02 03:54:06;;;;;;;0.90;0.30;;;20.90;99.90;;;;;;5089081;28;20907;-81
2021/05/02 03:56:46;;;;;;;2.80;0.60;;;20.90;99.90;;;;;;5086854;28;20771;-81
2021/05/02 03:59:17;;;;;;;2.75;0.63;;;20.90;99.90;;;;;;5088408;28;20395;-81
2021/05/02 04:01:56;;;;;;;2.38;0.68;;;20.90;99.90;;;;;;5090181;28;20415;-81
2021/05/02 04:04:25;;;;;;;1.60;0.45;;;20.90;99.90;;;;;;5089841;28;20368;-81
2021/05/02 04:06:56;;;;;;;4.45;0.63;;;20.80;99.90;;;;;;5089559;28;20384;-81
2021/05/02 04:09:23;;;;;;;2.25;0.50;;;20.70;99.90;;;;;;5072101;28;20378;-80
2021/05/02 04:11:50;;;;;;;3.47;0.60;;;20.60;99.90;;;;;;5083216;28;20403;-81
2021/05/02 04:14:17;;;;;;;3.35;0.50;;;20.50;99.90;;;;;;5078596;28;20445;-81
2021/05/02 04:16:55;;;;;;;3.03;0.50;;;20.40;99.90;;;;;;5089405;28;20392;-81
2021/05/02 04:19:22;;;;;;;3.72;0.60;;;20.40;99.90;;;;;;5088054;28;20384;-81
2021/05/02 04:21:49;;;;;;;7.60;5.30;;;20.40;99.90;;;;;;5086161;28;20415;-81
2021/05/02 04:24:17;;;;;;;16.98;10.40;;;20.40;99.90;;;;;;5089751;28;20373;-82
2021/05/02 04:26:49;;;;;;;24.67;16.30;;;20.40;99.90;;;;;;5089436;28;20380;-81
2021/05/02 04:29:16;;;;;;;27.47;19.57;;;20.30;99.90;;;;;;5081827;28;20913;-81
2021/05/02 04:31:43;;;;;;;30.08;21.77;;;20.30;99.90;;;;;;5080029;28;20388;-82
2021/05/02 04:34:10;;;;;;;24.38;17.67;;;20.40;99.90;;;;;;5079206;28;20384;-81
2021/05/02 04:36:37;;;;;;;17.40;12.70;;;20.60;99.90;;;;;;5084464;28;20403;-81
2021/05/02 04:39:05;;;;;;;12.95;6.65;;;20.70;99.90;;;;;;5089082;28;20384;-78
2021/05/02 04:41:32;;;;;;;9.32;4.25;;;20.70;99.90;;;;;;5087427;28;20740;-79
2021/05/02 04:43:59;;;;;;;6.47;3.15;;;20.80;99.90;;;;;;5089048;28;20733;-80
2021/05/02 04:46:26;;;;;;;3.67;1.33;;;20.90;99.90;;;;;;5071267;28;20474;-80
2021/05/02 04:48:53;;;;;;;3.70;1.60;;;20.90;99.90;;;;;;5088175;28;20369;-81
2021/05/02 04:51:21;;;;;;;4.20;2.38;;;20.90;99.90;;;;;;5083262;28;20756;-79
2021/05/02 04:53:49;;;;;;;6.88;1.70;;;20.80;99.90;;;;;;5084871;28;20529;-79
2021/05/02 04:56:16;;;;;;;4.93;1.17;;;20.70;99.90;;;;;;5070180;28;20429;-79
2021/05/02 04:58:44;;;;;;;4.32;1.10;;;20.60;99.90;;;;;;5075582;28;20392;-78
2021/05/02 05:01:13;;;;;;;4.07;1.17;;;20.40;99.90;;;;;;5087494;28;20463;-79
2021/05/02 05:03:44;;;;;;;4.88;2.22;;;20.40;99.90;;;;;;5086109;28;20379;-79
2021/05/02 05:06:12;;;;;;;10.50;3.40;;;20.30;99.90;;;;;;5095176;28;20403;-79
2021/05/02 05:08:48;;;;;;;6.78;2.40;;;20.30;99.90;;;;;;5081887;28;20391;-80
2021/05/02 05:11:15;;;;;;;4.40;1.98;;;20.40;99.90;;;;;;5081636;28;20402;-79
2021/05/02 05:13:42;;;;;;;6.55;4.20;;;20.30;99.90;;;;;;5083083;28;20934;-79
2021/05/02 05:16:09;;;;;;;26.90;17.45;;;20.30;99.90;;;;;;5084390;28;20395;-79
2021/05/02 05:18:36;;;;;;;38.75;29.98;;;20.30;99.90;;;;;;5078748;28;20437;-80
2021/05/02 05:21:03;;;;;;;49.67;34.15;;;20.30;99.90;;;;;;5080043;28;20408;-78
2021/05/02 05:23:30;;;;;;;40.05;30.27;;;20.20;99.90;;;;;;5084047;28;20437;-79
2021/05/02 05:26:01;;;;;;;25.20;16.50;;;20.10;99.90;;;;;;5087053;28;20399;-79
2021/05/02 05:28:28;;;;;;;13.85;7.65;;;20.10;99.90;;;;;;5080375;28;20380;-79
2021/05/02 05:30:55;;;;;;;10.35;4.60;;;20.10;99.90;;;;;;5077756;28;20829;-78
2021/05/02 05:33:27;;;;;;;6.25;2.35;;;20.10;99.90;;;;;;5068351;28;20757;-79
2021/05/02 05:35:54;;;;;;;5.20;2.10;;;20.00;99.90;;;;;;5068803;28;20390;-80
2021/05/02 05:38:21;;;;;;;6.17;2.23;;;19.90;99.90;;;;;;5068313;28;20471;-78
2021/05/02 05:40:48;;;;;;;6.30;3.27;;;19.90;99.90;;;;;;5068872;28;20390;-79
2021/05/02 05:43:16;;;;;;;9.68;3.70;;;19.90;99.90;;;;;;5071651;28;20455;-77
2021/05/02 05:45:44;;;;;;;10.32;5.88;;;19.90;99.90;;;;;;5081737;28;20724;-79
2021/05/02 05:48:11;;;;;;;16.45;12.30;;;19.80;99.90;;;;;;5079805;28;20946;-78
2021/05/02 05:50:41;;;;;;;29.50;23.08;;;19.80;99.90;;;;;;5080223;28;20484;-79
2021/05/02 05:53:08;;;;;;;30.67;22.77;;;19.80;99.90;;;;;;5088554;28;20777;-78
2021/05/02 05:55:35;;;;;;;27.80;21.25;;;19.80;99.90;;;;;;5086042;28;20388;-79
2021/05/02 05:58:02;;;;;;;30.48;21.67;;;19.80;99.90;;;;;;5090739;28;20475;-79
2021/05/02 06:00:29;;;;;;;30.42;21.70;;;19.70;99.90;;;;;;5080193;28;20443;-79
2021/05/02 06:02:56;;;;;;;25.70;19.10;;;19.70;99.90;;;;;;5073550;28;20465;-78
2021/05/02 06:05:23;;;;;;;20.63;14.60;;;19.60;99.90;;;;;;5085190;28;20396;-78
2021/05/02 06:07:50;;;;;;;11.07;3.78;;;19.60;99.90;;;;;;5091783;28;20902;-79
2021/05/02 06:10:17;;;;;;;4.88;1.40;;;19.50;99.90;;;;;;5073736;28;20899;-79
2021/05/02 06:12:44;;;;;;;5.18;1.10;;;19.30;99.90;;;;;;5089804;28;20400;-79
2021/05/02 06:15:12;;;;;;;3.53;0.88;;;19.30;99.90;;;;;;5072442;28;20803;-79
2021/05/02 06:17:40;;;;;;;4.55;0.75;;;19.20;99.90;;;;;;5090347;28;20954;-79
2021/05/02 06:20:08;;;;;;;4.05;0.80;;;19.20;99.90;;;;;;5091624;28;20408;-78
2021/05/02 06:22:35;;;;;;;5.75;1.08;;;19.10;99.90;;;;;;5091877;28;20445;-79
2021/05/02 06:25:03;;;;;;;4.30;0.80;;;19.00;99.90;;;;;;5091170;28;20377;-79
2021/05/02 06:27:30;;;;;;;5.80;1.10;;;19.00;99.90;;;;;;5091531;28;20404;-79
2021/05/02 06:29:57;;;;;;;4.63;0.90;;;18.90;99.90;;;;;;5091528;28;20433;-79
2021/05/02 06:32:24;;;;;;;4.32;0.82;;;18.90;99.90;;;;;;5091580;28;20392;-79
2021/05/02 06:34:52;;;;;;;4.80;1.33;;;18.90;99.90;;;;;;5087614;28;20586;-79
2021/05/02 06:37:19;;;;;;;5.40;0.90;;;18.90;99.90;;;;;;5078902;28;20411;-79
2021/05/02 06:39:46;;;;;;;4.03;0.83;;;18.80;99.90;;;;;;5087503;28;20909;-79
2021/05/02 06:42:13;;;;;;;4.68;0.93;;;18.80;99.90;;;;;;5090620;28;20895;-79
2021/05/02 06:44:40;;;;;;;7.18;1.30;;;18.70;99.90;;;;;;5084338;28;20393;-78
2021/05/02 06:47:07;;;;;;;4.97;1.65;;;18.60;99.90;;;;;;5090724;28;20476;-79
2021/05/02 06:49:34;;;;;;;8.90;4.03;;;18.60;99.90;;;;;;5089363;28;20799;-78
2021/05/02 06:52:01;;;;;;;5.85;1.00;;;18.60;99.90;;;;;;5048912;28;20408;-80
2021/05/02 06:54:28;;;;;;;5.72;1.60;;;18.50;99.90;;;;;;5049961;28;20403;-79
2021/05/02 06:56:55;;;;;;;7.35;3.53;;;18.40;99.90;;;;;;5048382;28;20414;-79
2021/05/02 06:59:23;;;;;;;9.48;4.07;;;18.40;99.90;;;;;;5049690;28;20431;-79
2021/05/02 07:01:50;;;;;;;13.40;7.57;;;18.40;99.90;;;;;;5049496;28;20393;-78
2021/05/02 07:04:17;;;;;;;5.55;2.55;;;18.30;99.90;;;;;;5048613;28;20451;-79
2021/05/02 07:06:44;;;;;;;26.58;14.57;;;18.30;99.90;;;;;;5049878;28;20475;-78
2021/05/02 07:09:11;;;;;;;216.23;192.45;;;18.20;99.90;;;;;;5049607;28;20386;-79
2021/05/02 07:11:38;;;;;;;111.68;96.60;;;18.10;99.90;;;;;;5049909;28;20447;-79
2021/05/02 07:14:06;;;;;;;50.90;42.92;;;18.10;99.90;;;;;;5049005;28;20456;-78
2021/05/02 07:16:33;;;;;;;10.77;5.50;;;18.10;99.90;;;;;;5062979;28;20416;-78
2021/05/02 07:19:01;;;;;;;6.15;2.33;;;18.00;99.90;;;;;;5046924;28;20471;-79
2021/05/02 07:21:28;;;;;;;7.45;2.08;;;18.00;99.90;;;;;;5048045;28;20418;-80
2021/05/02 07:23:55;;;;;;;13.80;7.35;;;18.00;99.90;;;;;;5050368;28;20380;-80
2021/05/02 07:26:23;;;;;;;9.52;5.32;;;17.90;99.90;;;;;;5045343;28;20396;-79
2021/05/02 07:28:51;;;;;;;9.07;3.30;;;17.90;99.90;;;;;;5048701;28;20392;-79
2021/05/02 07:31:18;;;;;;;17.85;7.35;;;17.90;99.90;;;;;;5048874;28;20400;-78
2021/05/02 07:33:46;;;;;;;7.40;3.20;;;17.90;99.90;;;;;;5038861;28;20458;-80
2021/05/02 07:36:14;;;;;;;7.88;3.00;;;17.80;99.90;;;;;;5048508;28;20379;-79
2021/05/02 07:38:44;;;;;;;5.72;1.17;;;17.80;99.90;;;;;;5047269;28;20414;-79
2021/05/02 07:41:12;;;;;;;7.15;1.45;;;17.70;99.90;;;;;;5048697;28;20395;-79
2021/05/02 07:43:40;;;;;;;7.10;1.20;;;17.70;99.90;;;;;;5047467;28;20392;-79
2021/05/02 07:46:08;;;;;;;8.77;1.33;;;17.70;99.90;;;;;;5047308;28;20388;-79
2021/05/02 07:48:35;;;;;;;7.97;1.42;;;17.70;99.90;;;;;;5043392;28;20425;-79
2021/05/02 07:51:03;;;;;;;7.13;1.80;;;17.70;99.90;;;;;;5072175;28;20902;-79
2021/05/02 07:53:30;;;;;;;7.50;1.30;;;17.60;99.90;;;;;;5087659;28;20396;-80
2021/05/02 07:55:57;;;;;;;6.78;1.45;;;17.60;99.90;;;;;;5089248;28;20391;-79
2021/05/02 07:58:24;;;;;;;9.80;1.52;;;17.60;99.90;;;;;;5082085;28;20380;-80
2021/05/02 08:00:51;;;;;;;3.90;1.00;;;17.60;99.90;;;;;;5088287;28;20404;-79
2021/05/02 08:03:18;;;;;;;5.80;1.30;;;17.60;99.90;;;;;;5088420;28;20879;-80
2021/05/02 08:05:45;;;;;;;9.30;1.75;;;17.60;99.90;;;;;;5081668;28;20403;-80
2021/05/02 08:08:12;;;;;;;6.05;1.80;;;17.60;99.90;;;;;;5088732;28;20393;-79
2021/05/02 08:10:39;;;;;;;5.47;1.38;;;17.50;99.90;;;;;;5085626;28;20401;-79
2021/05/02 08:13:07;;;;;;;8.40;1.10;;;17.50;99.90;;;;;;5091563;28;20477;-79
2021/05/02 08:15:34;;;;;;;6.38;1.88;;;17.50;99.90;;;;;;5077372;28;20380;-79
2021/05/02 08:18:01;;;;;;;6.97;1.85;;;17.50;99.90;;;;;;5082496;28;20398;-79
2021/05/02 08:20:29;;;;;;;6.93;1.80;;;17.50;99.90;;;;;;5074018;28;20390;-80
2021/05/02 08:22:56;;;;;;;4.95;1.40;;;17.50;99.90;;;;;;5080427;28;20399;-79
2021/05/02 08:25:24;;;;;;;7.25;1.50;;;17.40;99.90;;;;;;5082453;28;20437;-79
2021/05/02 08:27:51;;;;;;;5.00;0.95;;;17.40;99.90;;;;;;5082755;28;20405;-78
2021/05/02 08:30:18;;;;;;;5.97;1.40;;;17.30;99.90;;;;;;5081538;28;20440;-79
2021/05/02 08:32:45;;;;;;;6.68;1.05;;;17.30;99.90;;;;;;5072428;28;20413;-79
2021/05/02 08:35:13;;;;;;;6.40;1.27;;;17.30;99.90;;;;;;5077727;28;20428;-78
2021/05/02 08:37:40;;;;;;;6.07;1.27;;;17.30;99.90;;;;;;5073817;28;20398;-78
2021/05/02 08:40:08;;;;;;;7.28;1.45;;;17.30;99.90;;;;;;5077341;28;20736;-78
2021/05/02 08:42:36;;;;;;;7.60;1.40;;;17.30;99.90;;;;;;5081781;28;20468;-78
2021/05/02 08:45:06;;;;;;;8.90;1.50;;;17.30;99.90;;;;;;5091154;28;20476;-79
2021/05/02 08:47:36;;;;;;;4.72;1.25;;;17.20;99.90;;;;;;5089565;28;20365;-78
2021/05/02 08:50:12;;;;;;;5.27;1.30;;;17.20;99.90;;;;;;5082027;28;20514;-78
2021/05/02 08:52:39;;;;;;;7.47;1.20;;;17.20;99.90;;;;;;5086897;28;20904;-78
2021/05/02 08:55:08;;;;;;;6.03;1.40;;;17.20;99.90;;;;;;5089614;28;20388;-79
2021/05/02 08:57:38;;;;;;;7.70;1.55;;;17.20;99.90;;;;;;5087557;28;20495;-79
2021/05/02 09:00:07;;;;;;;6.53;1.38;;;17.10;99.90;;;;;;5086846;28;20829;-78
2021/05/02 09:02:35;;;;;;;6.85;1.17;;;17.10;99.90;;;;;;5073512;28;20397;-78
2021/05/02 09:05:04;;;;;;;8.80;1.60;;;17.10;99.90;;;;;;5089229;28;20372;-78
2021/05/02 09:07:46;;;;;;;5.18;1.02;;;17.10;99.90;;;;;;5088403;28;20395;-78
2021/05/02 09:10:39;;;;;;;5.53;1.17;;;17.10;99.90;;;;;;5085214;28;20747;-78
2021/05/02 09:13:13;;;;;;;4.20;1.10;;;17.00;99.90;;;;;;5088613;28;20474;-78
2021/05/02 09:15:41;;;;;;;8.15;1.55;;;17.10;99.90;;;;;;5087956;28;20376;-79
2021/05/02 09:20:51;;;;;;;6.72;1.55;;;17.00;99.90;;;;;;5088973;28;20384;-79
2021/05/02 09:23:18;;;;;;;7.33;1.23;;;17.00;99.90;;;;;;5075992;28;20478;-79
2021/05/02 09:25:51;;;;;;;5.60;1.17;;;17.00;99.90;;;;;;5086604;28;21087;-80
2021/05/02 09:28:37;;;;;;;8.20;1.38;;;16.90;99.90;;;;;;5072501;28;20388;-79
2021/05/02 09:31:08;;;;;;;8.32;1.40;;;17.00;99.90;;;;;;5071497;28;20406;-79
2021/05/02 09:33:37;;;;;;;8.73;1.50;;;17.00;99.90;;;;;;5081573;28;20767;-80
2021/05/02 09:36:10;;;;;;;7.20;1.47;;;17.00;99.90;;;;;;5074303;28;20530;-79
2021/05/02 09:38:38;;;;;;;6.25;1.00;;;16.90;99.90;;;;;;5073692;28;20936;-79
2021/05/02 09:41:07;;;;;;;5.40;1.20;;;16.90;99.90;;;;;;5075678;28;20399;-79
2021/05/02 09:43:46;;;;;;;6.13;1.23;;;16.80;99.90;;;;;;5084820;28;20384;-78
2021/05/02 09:46:33;;;;;;;4.97;1.25;;;16.80;99.90;;;;;;5085152;28;20383;-78
2021/05/02 09:49:09;;;;;;;5.53;1.10;;;16.80;99.90;;;;;;5077534;28;20420;-79
2021/05/02 09:51:39;;;;;;;4.77;1.10;;;16.80;99.90;;;;;;5072296;28;20404;-79
2021/05/02 09:54:12;;;;;;;6.00;1.17;;;16.80;99.90;;;;;;5074139;28;20392;-79
2021/05/02 09:56:45;;;;;;;6.15;1.13;;;16.80;99.90;;;;;;5075641;28;20477;-79
2021/05/02 09:59:24;;;;;;;4.45;1.02;;;16.80;99.90;;;;;;5083566;28;20400;-78
2021/05/02 10:02:03;;;;;;;6.15;1.20;;;16.80;99.90;;;;;;5085881;28;20387;-79
2021/05/02 10:04:32;;;;;;;7.13;0.95;;;16.80;99.90;;;;;;5085422;28;20887;-79
2021/05/02 10:07:10;;;;;;;4.40;0.90;;;16.70;99.90;;;;;;5069502;28;20487;-79
2021/05/02 10:09:38;;;;;;;4.68;0.98;;;16.70;99.90;;;;;;5085297;28;20392;-79
2021/05/02 10:12:06;;;;;;;3.30;1.10;;;16.70;99.90;;;;;;5075710;28;20906;-78
2021/05/02 10:14:34;;;;;;;5.50;1.10;;;16.70;99.90;;;;;;5065828;28;20385;-78
2021/05/02 10:17:05;;;;;;;5.43;1.30;;;16.60;99.90;;;;;;5085519;28;20453;-79
2021/05/02 10:19:33;;;;;;;5.88;1.02;;;16.60;99.90;;;;;;5085462;28;20385;-79
2021/05/02 10:22:01;;;;;;;7.00;1.30;;;16.60;99.90;;;;;;5085498;28;20400;-79
2021/05/02 10:24:28;;;;;;;4.65;1.02;;;16.60;99.90;;;;;;5084904;28;20384;-79
2021/05/02 10:26:56;;;;;;;3.47;1.05;;;16.60;99.90;;;;;;5087938;28;20373;-79
2021/05/02 10:29:33;;;;;;;6.18;1.30;;;16.60;99.90;;;;;;5088975;28;20554;-80
2021/05/02 10:32:03;;;;;;;4.70;1.50;;;16.60;99.90;;;;;;5089946;28;20422;-79
2021/05/02 10:34:39;;;;;;;5.20;1.20;;;16.60;99.90;;;;;;5090562;28;20457;-79
2021/05/02 10:37:24;;;;;;;3.57;1.20;;;16.50;99.90;;;;;;5090608;28;20391;-79
2021/05/02 10:40:03;;;;;;;5.53;1.20;;;16.40;99.90;;;;;;5090174;28;20396;-79
2021/05/02 10:42:51;;;;;;;4.88;1.40;;;16.40;99.90;;;;;;5093307;28;20856;-78
2021/05/02 10:45:33;;;;;;;3.70;1.03;;;16.30;99.90;;;;;;5090851;28;20376;-79
2021/05/02 10:48:04;;;;;;;8.27;1.30;;;16.30;99.90;;;;;;5088757;28;20408;-79
2021/05/02 10:50:40;;;;;;;4.93;1.20;;;16.30;99.90;;;;;;5110534;28;20405;-79
2021/05/02 10:53:13;;;;;;;4.78;1.23;;;16.20;99.90;;;;;;5095596;28;20408;-78
2021/05/02 10:55:46;;;;;;;4.07;1.30;;;16.20;99.90;;;;;;5089149;28;20384;-78
2021/05/02 10:58:28;;;;;;;7.68;1.27;;;16.10;99.90;;;;;;5088653;28;20495;-79
2021/05/02 11:01:09;;;;;;;5.32;1.10;;;16.10;99.90;;;;;;5085896;28;20385;-79
2021/05/02 11:03:39;;;;;;;5.60;1.08;;;16.10;99.90;;;;;;5088592;28;20464;-80
2021/05/02 11:06:35;;;;;;;7.33;1.00;;;16.10;99.90;;;;;;5080812;28;20408;-79
2021/05/02 11:09:03;;;;;;;6.32;0.93;;;16.00;99.90;;;;;;5086454;28;20412;-78
2021/05/02 11:11:33;;;;;;;3.87;0.93;;;16.00;99.90;;;;;;5086743;28;20400;-79
2021/05/02 11:14:10;;;;;;;3.95;1.10;;;15.90;99.90;;;;;;5088574;28;20421;-79
2021/05/02 11:16:41;;;;;;;4.47;1.00;;;15.90;99.90;;;;;;5086591;28;20416;-78
2021/05/02 11:19:22;;;;;;;3.40;0.95;;;15.90;99.90;;;;;;5087769;28;20392;-78
2021/05/02 11:21:49;;;;;;;4.53;1.05;;;15.90;99.90;;;;;;5079397;28;20453;-78
2021/05/02 11:24:17;;;;;;;4.88;1.13;;;15.90;99.90;;;;;;5086588;28;20387;-80
2021/05/02 11:26:48;;;;;;;6.13;1.00;;;15.90;99.90;;;;;;5085371;28;20396;-78
2021/05/02 11:29:18;;;;;;;7.65;1.15;;;15.90;99.90;;;;;;5086108;28;20393;-78
2021/05/02 11:31:45;;;;;;;4.30;0.93;;;15.80;99.90;;;;;;5087327;28;20400;-78
2021/05/02 11:34:12;;;;;;;9.35;1.45;;;15.80;99.90;;;;;;5087699;28;20377;-78
2021/05/02 11:36:41;;;;;;;6.07;1.27;;;15.80;99.90;;;;;;5086964;28;20376;-78
2021/05/02 11:39:31;;;;;;;3.15;0.90;;;15.70;99.90;;;;;;5086174;28;20814;-79
2021/05/02 11:42:06;;;;;;;5.80;0.98;;;15.70;99.90;;;;;;5090862;28;20401;-78
2021/05/02 11:44:34;;;;;;;7.43;1.30;;;15.70;99.90;;;;;;5086188;28;20397;-79
2021/05/02 11:47:12;;;;;;;6.40;1.00;;;15.70;99.90;;;;;;5087121;28;20491;-79
2021/05/02 11:49:42;;;;;;;4.43;0.90;;;15.70;99.90;;;;;;5084041;28;20393;-79
2021/05/02 11:52:09;;;;;;;6.97;1.10;;;15.70;99.90;;;;;;5078185;28;20396;-78
2021/05/02 11:54:45;;;;;;;3.95;0.90;;;15.70;99.90;;;;;;5087246;28;20397;-80
2021/05/02 11:57:12;;;;;;;5.55;1.20;;;15.70;99.90;;;;;;5084804;28;20816;-78
2021/05/02 11:59:53;;;;;;;4.05;1.40;;;15.60;99.90;;;;;;5078102;28;20433;-79
2021/05/02 12:02:19;;;;;;;6.35;1.20;;;15.60;99.90;;;;;;5077234;28;20382;-79
2021/05/02 12:04:46;;;;;;;6.53;1.27;;;15.60;99.90;;;;;;5074701;28;20399;-79
2021/05/02 12:07:13;;;;;;;4.37;0.93;;;15.60;99.90;;;;;;5086808;28;20499;-78
2021/05/02 12:09:43;;;;;;;4.27;0.97;;;15.60;99.90;;;;;;5177359;22;20417;-79
2021/05/02 12:12:11;;;;;;;5.40;0.90;;;15.60;99.90;;;;;;5047501;28;20404;-80
2021/05/02 12:14:38;;;;;;;5.30;0.90;;;15.60;99.90;;;;;;5047513;28;20474;-80
2021/05/02 12:17:07;;;;;;;4.35;1.00;;;15.60;99.90;;;;;;5046943;28;20372;-81
2021/05/02 12:19:36;;;;;;;3.22;1.00;;;15.60;99.90;;;;;;5045203;28;20403;-80
2021/05/02 12:22:03;;;;;;;5.70;1.02;;;15.60;99.90;;;;;;5046158;28;20368;-80
2021/05/02 12:24:31;;;;;;;6.03;1.10;;;15.60;99.90;;;;;;5046175;28;20431;-79
2021/05/02 12:27:01;;;;;;;4.50;1.15;;;15.60;99.90;;;;;;5044939;28;20394;-79
2021/05/02 12:29:36;;;;;;;5.85;1.23;;;15.70;99.90;;;;;;5044669;28;20394;-77
2021/05/02 12:32:08;;;;;;;6.80;1.30;;;15.70;99.90;;;;;;5043654;28;20956;-78
2021/05/02 12:34:37;;;;;;;5.00;1.10;;;15.70;99.90;;;;;;5042431;28;20403;-78
2021/05/02 12:37:09;;;;;;;5.65;1.30;;;15.60;99.90;;;;;;5044038;28;20419;-78
2021/05/02 12:39:38;;;;;;;4.88;1.17;;;15.50;99.90;;;;;;5042784;28;20398;-77
2021/05/02 12:42:06;;;;;;;6.88;1.17;;;15.40;99.90;;;;;;5044714;28;20393;-80
2021/05/02 12:44:35;;;;;;;6.87;1.13;;;15.40;99.90;;;;;;5028998;28;20434;-78
2021/05/02 12:47:17;;;;;;;3.05;0.82;;;15.40;99.90;;;;;;5045840;28;20390;-78
2021/05/02 12:50:20;;;;;;;3.43;0.87;;;15.40;99.90;;;;;;5048250;28;20391;-78
2021/05/02 12:52:52;;;;;;;5.53;0.95;;;15.40;99.90;;;;;;5050632;28;20875;-79
2021/05/02 12:55:27;;;;;;;8.93;1.15;;;15.40;99.90;;;;;;5052233;28;20398;-78
2021/05/02 12:57:59;;;;;;;5.68;0.90;;;15.30;99.90;;;;;;5051171;28;20390;-78
2021/05/02 13:00:33;;;;;;;4.68;0.80;;;15.40;99.90;;;;;;5052595;28;20411;-78
2021/05/02 13:03:31;;;;;;;4.53;1.33;;;15.40;99.90;;;;;;5049528;28;20862;-78